sensor_id;sensor_type;location;lat;lon;timestamp;P1;durP1;ratioP1;P2;durP2;ratioP2
46457;SDS011;32155;54.076;12.092;2023-04-16T00:01:50;38.38;;;21.50;;
46457;SDS011;32155;54.076;12.092;2023-04-16T00:04:17;45.83;;;20.92;;
46457;SDS011;32155;54.076;12.092;2023-04-16T00:06:45;44.13;;;22.85;;
46457;SDS011;32155;54.076;12.092;2023-04-16T00:09:11;38.80;;;22.27;;
46457;SDS011;32155;54.076;12.092;2023-04-16T00:11:36;40.47;;;21.83;;
46457;SDS011;32155;54.076;12.092;2023-04-16T00:14:04;42.22;;;22.65;;
46457;SDS011;32155;54.076;12.092;2023-04-16T00:16:30;40.63;;;22.08;;
46457;SDS011;32155;54.076;12.092;2023-04-16T00:18:55;43.28;;;23.83;;
46457;SDS011;32155;54.076;12.092;2023-04-16T00:21:21;44.55;;;23.00;;
46457;SDS011;32155;54.076;12.092;2023-04-16T00:23:47;41.63;;;22.95;;
46457;SDS011;32155;54.076;12.092;2023-04-16T00:26:12;39.22;;;23.58;;
46457;SDS011;32155;54.076;12.092;2023-04-16T00:28:38;45.28;;;23.70;;
46457;SDS011;32155;54.076;12.092;2023-04-16T00:31:04;38.10;;;22.25;;
46457;SDS011;32155;54.076;12.092;2023-04-16T00:33:29;43.88;;;23.70;;
46457;SDS011;32155;54.076;12.092;2023-04-16T00:35:57;41.30;;;24.10;;
46457;SDS011;32155;54.076;12.092;2023-04-16T00:38:27;44.72;;;23.42;;
46457;SDS011;32155;54.076;12.092;2023-04-16T00:40:54;45.60;;;23.38;;
46457;SDS011;32155;54.076;12.092;2023-04-16T00:43:23;40.95;;;23.52;;
46457;SDS011;32155;54.076;12.092;2023-04-16T00:45:51;39.58;;;23.00;;
46457;SDS011;32155;54.076;12.092;2023-04-16T00:48:20;45.22;;;23.02;;
46457;SDS011;32155;54.076;12.092;2023-04-16T00:50:46;42.67;;;23.27;;
46457;SDS011;32155;54.076;12.092;2023-04-16T00:53:13;48.55;;;23.90;;
46457;SDS011;32155;54.076;12.092;2023-04-16T00:55:39;41.05;;;23.95;;
46457;SDS011;32155;54.076;12.092;2023-04-16T00:58:05;42.38;;;23.52;;
46457;SDS011;32155;54.076;12.092;2023-04-16T01:00:31;39.83;;;22.60;;
46457;SDS011;32155;54.076;12.092;2023-04-16T01:02:57;44.72;;;23.30;;
46457;SDS011;32155;54.076;12.092;2023-04-16T01:05:24;42.80;;;23.13;;
46457;SDS011;32155;54.076;12.092;2023-04-16T01:07:50;43.60;;;23.20;;
46457;SDS011;32155;54.076;12.092;2023-04-16T01:10:16;43.78;;;22.77;;
46457;SDS011;32155;54.076;12.092;2023-04-16T01:12:41;43.58;;;23.70;;
46457;SDS011;32155;54.076;12.092;2023-04-16T01:15:07;41.13;;;22.98;;
46457;SDS011;32155;54.076;12.092;2023-04-16T01:17:33;45.08;;;23.30;;
46457;SDS011;32155;54.076;12.092;2023-04-16T01:19:59;39.75;;;22.55;;
46457;SDS011;32155;54.076;12.092;2023-04-16T01:22:26;44.97;;;23.70;;
46457;SDS011;32155;54.076;12.092;2023-04-16T01:24:52;40.03;;;23.27;;
46457;SDS011;32155;54.076;12.092;2023-04-16T01:27:18;42.45;;;24.38;;
46457;SDS011;32155;54.076;12.092;2023-04-16T01:29:43;47.95;;;24.00;;
46457;SDS011;32155;54.076;12.092;2023-04-16T01:32:09;47.55;;;24.35;;
46457;SDS011;32155;54.076;12.092;2023-04-16T01:34:35;44.63;;;24.40;;
46457;SDS011;32155;54.076;12.092;2023-04-16T01:37:01;46.90;;;23.98;;
46457;SDS011;32155;54.076;12.092;2023-04-16T01:39:28;42.50;;;23.95;;
46457;SDS011;32155;54.076;12.092;2023-04-16T01:41:56;48.50;;;25.90;;
46457;SDS011;32155;54.076;12.092;2023-04-16T01:44:22;45.75;;;24.77;;
46457;SDS011;32155;54.076;12.092;2023-04-16T01:46:48;40.67;;;24.88;;
46457;SDS011;32155;54.076;12.092;2023-04-16T01:49:14;52.95;;;25.50;;
46457;SDS011;32155;54.076;12.092;2023-04-16T01:51:40;49.88;;;24.67;;
46457;SDS011;32155;54.076;12.092;2023-04-16T01:54:06;43.03;;;24.67;;
46457;SDS011;32155;54.076;12.092;2023-04-16T01:56:32;45.80;;;24.88;;
46457;SDS011;32155;54.076;12.092;2023-04-16T01:58:59;44.90;;;25.25;;
46457;SDS011;32155;54.076;12.092;2023-04-16T02:01:27;40.78;;;24.45;;
46457;SDS011;32155;54.076;12.092;2023-04-16T02:03:56;44.30;;;24.02;;
46457;SDS011;32155;54.076;12.092;2023-04-16T02:06:24;48.05;;;24.42;;
46457;SDS011;32155;54.076;12.092;2023-04-16T02:08:51;46.45;;;25.23;;
46457;SDS011;32155;54.076;12.092;2023-04-16T02:11:17;48.45;;;25.48;;
46457;SDS011;32155;54.076;12.092;2023-04-16T02:13:45;47.90;;;25.08;;
46457;SDS011;32155;54.076;12.092;2023-04-16T02:16:11;50.42;;;25.35;;
46457;SDS011;32155;54.076;12.092;2023-04-16T02:18:36;47.83;;;24.83;;
46457;SDS011;32155;54.076;12.092;2023-04-16T02:21:04;45.17;;;24.85;;
46457;SDS011;32155;54.076;12.092;2023-04-16T02:23:33;52.33;;;25.50;;
46457;SDS011;32155;54.076;12.092;2023-04-16T02:26:03;51.38;;;26.35;;
46457;SDS011;32155;54.076;12.092;2023-04-16T02:28:29;47.60;;;25.73;;
46457;SDS011;32155;54.076;12.092;2023-04-16T02:30:55;47.13;;;25.25;;
46457;SDS011;32155;54.076;12.092;2023-04-16T02:33:21;48.03;;;26.60;;
46457;SDS011;32155;54.076;12.092;2023-04-16T02:35:51;50.13;;;25.23;;
46457;SDS011;32155;54.076;12.092;2023-04-16T02:38:17;51.13;;;26.15;;
46457;SDS011;32155;54.076;12.092;2023-04-16T02:40:42;53.28;;;26.17;;
46457;SDS011;32155;54.076;12.092;2023-04-16T02:43:08;48.42;;;26.50;;
46457;SDS011;32155;54.076;12.092;2023-04-16T02:45:36;61.53;;;27.58;;
46457;SDS011;32155;54.076;12.092;2023-04-16T02:48:02;46.35;;;26.77;;
46457;SDS011;32155;54.076;12.092;2023-04-16T02:50:28;48.28;;;26.75;;
46457;SDS011;32155;54.076;12.092;2023-04-16T02:52:53;47.85;;;26.85;;
46457;SDS011;32155;54.076;12.092;2023-04-16T02:55:19;52.83;;;28.13;;
46457;SDS011;32155;54.076;12.092;2023-04-16T02:57:55;57.80;;;28.52;;
46457;SDS011;32155;54.076;12.092;2023-04-16T03:00:21;52.38;;;28.10;;
46457;SDS011;32155;54.076;12.092;2023-04-16T03:02:46;54.40;;;28.55;;
46457;SDS011;32155;54.076;12.092;2023-04-16T03:05:14;50.55;;;28.23;;
46457;SDS011;32155;54.076;12.092;2023-04-16T03:07:43;55.63;;;28.55;;
46457;SDS011;32155;54.076;12.092;2023-04-16T03:10:08;56.95;;;29.33;;
46457;SDS011;32155;54.076;12.092;2023-04-16T03:12:35;53.08;;;30.38;;
46457;SDS011;32155;54.076;12.092;2023-04-16T03:15:01;58.13;;;30.02;;
46457;SDS011;32155;54.076;12.092;2023-04-16T03:17:27;53.42;;;28.33;;
46457;SDS011;32155;54.076;12.092;2023-04-16T03:19:55;54.58;;;29.30;;
46457;SDS011;32155;54.076;12.092;2023-04-16T03:22:23;47.92;;;28.33;;
46457;SDS011;32155;54.076;12.092;2023-04-16T03:24:48;57.22;;;29.77;;
46457;SDS011;32155;54.076;12.092;2023-04-16T03:27:14;54.17;;;27.98;;
46457;SDS011;32155;54.076;12.092;2023-04-16T03:29:40;57.63;;;29.83;;
46457;SDS011;32155;54.076;12.092;2023-04-16T03:32:05;60.15;;;30.00;;
46457;SDS011;32155;54.076;12.092;2023-04-16T03:34:31;57.58;;;28.98;;
46457;SDS011;32155;54.076;12.092;2023-04-16T03:36:57;58.60;;;28.30;;
46457;SDS011;32155;54.076;12.092;2023-04-16T03:39:22;54.00;;;30.52;;
46457;SDS011;32155;54.076;12.092;2023-04-16T03:41:48;59.55;;;29.30;;
46457;SDS011;32155;54.076;12.092;2023-04-16T03:44:16;50.80;;;28.13;;
46457;SDS011;32155;54.076;12.092;2023-04-16T03:46:41;56.40;;;27.65;;
46457;SDS011;32155;54.076;12.092;2023-04-16T03:49:09;59.83;;;27.90;;
46457;SDS011;32155;54.076;12.092;2023-04-16T03:51:35;55.35;;;28.63;;
46457;SDS011;32155;54.076;12.092;2023-04-16T03:54:00;56.03;;;28.90;;
46457;SDS011;32155;54.076;12.092;2023-04-16T03:56:26;47.38;;;27.42;;
46457;SDS011;32155;54.076;12.092;2023-04-16T03:58:54;53.03;;;27.50;;
46457;SDS011;32155;54.076;12.092;2023-04-16T04:01:20;51.63;;;28.63;;
46457;SDS011;32155;54.076;12.092;2023-04-16T04:03:45;51.95;;;27.27;;
46457;SDS011;32155;54.076;12.092;2023-04-16T04:06:11;52.33;;;27.98;;
46457;SDS011;32155;54.076;12.092;2023-04-16T04:08:37;49.92;;;27.95;;
46457;SDS011;32155;54.076;12.092;2023-04-16T04:11:03;50.70;;;28.38;;
46457;SDS011;32155;54.076;12.092;2023-04-16T04:13:31;53.95;;;28.02;;
46457;SDS011;32155;54.076;12.092;2023-04-16T04:15:57;56.05;;;28.55;;
46457;SDS011;32155;54.076;12.092;2023-04-16T04:18:25;54.63;;;29.42;;
46457;SDS011;32155;54.076;12.092;2023-04-16T04:20:52;50.30;;;28.60;;
46457;SDS011;32155;54.076;12.092;2023-04-16T04:23:18;53.60;;;29.15;;
46457;SDS011;32155;54.076;12.092;2023-04-16T04:25:43;58.60;;;27.60;;
46457;SDS011;32155;54.076;12.092;2023-04-16T04:28:09;53.47;;;28.33;;
46457;SDS011;32155;54.076;12.092;2023-04-16T04:30:35;53.20;;;28.60;;
46457;SDS011;32155;54.076;12.092;2023-04-16T04:33:01;60.17;;;29.40;;
46457;SDS011;32155;54.076;12.092;2023-04-16T04:35:26;58.90;;;29.77;;
46457;SDS011;32155;54.076;12.092;2023-04-16T04:37:52;60.00;;;30.17;;
46457;SDS011;32155;54.076;12.092;2023-04-16T04:40:20;55.47;;;29.25;;
46457;SDS011;32155;54.076;12.092;2023-04-16T04:42:45;51.80;;;28.48;;
46457;SDS011;32155;54.076;12.092;2023-04-16T04:45:13;52.75;;;28.10;;
46457;SDS011;32155;54.076;12.092;2023-04-16T04:47:39;60.00;;;28.88;;
46457;SDS011;32155;54.076;12.092;2023-04-16T04:50:07;51.10;;;29.60;;
46457;SDS011;32155;54.076;12.092;2023-04-16T04:52:33;45.70;;;27.95;;
46457;SDS011;32155;54.076;12.092;2023-04-16T04:54:59;57.95;;;27.73;;
46457;SDS011;32155;54.076;12.092;2023-04-16T04:57:24;52.17;;;27.65;;
46457;SDS011;32155;54.076;12.092;2023-04-16T04:59:52;49.90;;;27.63;;
46457;SDS011;32155;54.076;12.092;2023-04-16T05:02:18;52.05;;;26.00;;
46457;SDS011;32155;54.076;12.092;2023-04-16T05:04:45;47.03;;;28.02;;
46457;SDS011;32155;54.076;12.092;2023-04-16T05:07:11;47.95;;;27.02;;
46457;SDS011;32155;54.076;12.092;2023-04-16T05:09:37;48.00;;;26.50;;
46457;SDS011;32155;54.076;12.092;2023-04-16T05:12:05;54.20;;;27.77;;
46457;SDS011;32155;54.076;12.092;2023-04-16T05:14:30;57.47;;;27.60;;
46457;SDS011;32155;54.076;12.092;2023-04-16T05:16:56;59.13;;;26.70;;
46457;SDS011;32155;54.076;12.092;2023-04-16T05:19:21;55.55;;;28.10;;
46457;SDS011;32155;54.076;12.092;2023-04-16T05:21:47;49.38;;;27.95;;
46457;SDS011;32155;54.076;12.092;2023-04-16T05:24:13;52.72;;;29.00;;
46457;SDS011;32155;54.076;12.092;2023-04-16T05:26:38;52.53;;;29.33;;
46457;SDS011;32155;54.076;12.092;2023-04-16T05:29:04;68.35;;;30.05;;
46457;SDS011;32155;54.076;12.092;2023-04-16T05:31:31;53.75;;;28.48;;
46457;SDS011;32155;54.076;12.092;2023-04-16T05:33:56;57.65;;;28.98;;
46457;SDS011;32155;54.076;12.092;2023-04-16T05:36:22;48.70;;;27.52;;
46457;SDS011;32155;54.076;12.092;2023-04-16T05:38:48;49.25;;;27.98;;
46457;SDS011;32155;54.076;12.092;2023-04-16T05:41:13;52.65;;;28.63;;
46457;SDS011;32155;54.076;12.092;2023-04-16T05:43:39;51.88;;;28.15;;
46457;SDS011;32155;54.076;12.092;2023-04-16T05:46:05;49.55;;;28.02;;
46457;SDS011;32155;54.076;12.092;2023-04-16T05:48:30;49.70;;;26.95;;
46457;SDS011;32155;54.076;12.092;2023-04-16T05:50:56;47.47;;;27.80;;
46457;SDS011;32155;54.076;12.092;2023-04-16T05:53:24;44.80;;;26.73;;
46457;SDS011;32155;54.076;12.092;2023-04-16T05:55:49;52.30;;;26.90;;
46457;SDS011;32155;54.076;12.092;2023-04-16T05:58:15;46.35;;;26.67;;
46457;SDS011;32155;54.076;12.092;2023-04-16T06:00:41;48.67;;;25.80;;
46457;SDS011;32155;54.076;12.092;2023-04-16T06:03:09;45.55;;;25.60;;
46457;SDS011;32155;54.076;12.092;2023-04-16T06:05:35;47.83;;;25.00;;
46457;SDS011;32155;54.076;12.092;2023-04-16T06:08:00;51.72;;;24.67;;
46457;SDS011;32155;54.076;12.092;2023-04-16T06:10:26;44.05;;;25.70;;
46457;SDS011;32155;54.076;12.092;2023-04-16T06:12:52;41.13;;;24.00;;
46457;SDS011;32155;54.076;12.092;2023-04-16T06:15:20;49.80;;;25.40;;
46457;SDS011;32155;54.076;12.092;2023-04-16T06:17:48;48.03;;;24.20;;
46457;SDS011;32155;54.076;12.092;2023-04-16T06:20:16;44.97;;;24.55;;
46457;SDS011;32155;54.076;12.092;2023-04-16T06:22:42;47.80;;;25.30;;
46457;SDS011;32155;54.076;12.092;2023-04-16T06:25:08;41.75;;;23.52;;
46457;SDS011;32155;54.076;12.092;2023-04-16T06:27:33;43.67;;;23.45;;
46457;SDS011;32155;54.076;12.092;2023-04-16T06:29:59;43.80;;;23.35;;
46457;SDS011;32155;54.076;12.092;2023-04-16T06:32:25;47.42;;;21.83;;
46457;SDS011;32155;54.076;12.092;2023-04-16T06:34:50;35.08;;;21.25;;
46457;SDS011;32155;54.076;12.092;2023-04-16T06:37:16;43.33;;;21.80;;
46457;SDS011;32155;54.076;12.092;2023-04-16T06:39:41;36.50;;;21.50;;
46457;SDS011;32155;54.076;12.092;2023-04-16T06:44:36;41.17;;;20.95;;
46457;SDS011;32155;54.076;12.092;2023-04-16T06:47:02;35.45;;;20.85;;
46457;SDS011;32155;54.076;12.092;2023-04-16T06:49:40;35.75;;;20.00;;
46457;SDS011;32155;54.076;12.092;2023-04-16T06:52:05;34.83;;;18.85;;
46457;SDS011;32155;54.076;12.092;2023-04-16T06:54:31;38.92;;;19.77;;
46457;SDS011;32155;54.076;12.092;2023-04-16T06:57:01;38.47;;;18.77;;
46457;SDS011;32155;54.076;12.092;2023-04-16T06:59:30;36.85;;;18.92;;
46457;SDS011;32155;54.076;12.092;2023-04-16T07:01:55;32.22;;;18.58;;
46457;SDS011;32155;54.076;12.092;2023-04-16T07:04:22;33.38;;;18.38;;
46457;SDS011;32155;54.076;12.092;2023-04-16T07:06:48;33.60;;;18.58;;
46457;SDS011;32155;54.076;12.092;2023-04-16T07:09:15;36.90;;;18.65;;
46457;SDS011;32155;54.076;12.092;2023-04-16T07:11:42;34.20;;;17.95;;
46457;SDS011;32155;54.076;12.092;2023-04-16T07:14:09;34.10;;;18.63;;
46457;SDS011;32155;54.076;12.092;2023-04-16T07:16:35;30.42;;;18.08;;
46457;SDS011;32155;54.076;12.092;2023-04-16T07:19:01;31.95;;;17.50;;
46457;SDS011;32155;54.076;12.092;2023-04-16T07:21:30;33.70;;;17.88;;
46457;SDS011;32155;54.076;12.092;2023-04-16T07:23:55;26.63;;;16.50;;
46457;SDS011;32155;54.076;12.092;2023-04-16T07:26:23;27.80;;;16.13;;
46457;SDS011;32155;54.076;12.092;2023-04-16T07:28:49;31.23;;;16.05;;
46457;SDS011;32155;54.076;12.092;2023-04-16T07:31:14;29.92;;;16.23;;
46457;SDS011;32155;54.076;12.092;2023-04-16T07:33:42;29.88;;;16.20;;
46457;SDS011;32155;54.076;12.092;2023-04-16T07:36:08;28.48;;;15.60;;
46457;SDS011;32155;54.076;12.092;2023-04-16T07:38:33;29.90;;;15.48;;
46457;SDS011;32155;54.076;12.092;2023-04-16T07:41:01;29.70;;;15.18;;
46457;SDS011;32155;54.076;12.092;2023-04-16T07:46:15;29.10;;;16.35;;
46457;SDS011;32155;54.076;12.092;2023-04-16T07:48:41;28.25;;;15.63;;
46457;SDS011;32155;54.076;12.092;2023-04-16T07:51:09;27.55;;;15.73;;
46457;SDS011;32155;54.076;12.092;2023-04-16T07:53:35;30.98;;;16.23;;
46457;SDS011;32155;54.076;12.092;2023-04-16T07:56:01;29.83;;;15.95;;
46457;SDS011;32155;54.076;12.092;2023-04-16T07:58:31;33.75;;;15.30;;
46457;SDS011;32155;54.076;12.092;2023-04-16T08:00:59;29.60;;;15.23;;
46457;SDS011;32155;54.076;12.092;2023-04-16T08:03:25;31.90;;;15.32;;
46457;SDS011;32155;54.076;12.092;2023-04-16T08:05:56;22.77;;;13.93;;
46457;SDS011;32155;54.076;12.092;2023-04-16T08:08:22;30.20;;;15.40;;
46457;SDS011;32155;54.076;12.092;2023-04-16T08:11:06;33.65;;;15.50;;
46457;SDS011;32155;54.076;12.092;2023-04-16T08:16:44;30.33;;;14.65;;
46457;SDS011;32155;54.076;12.092;2023-04-16T08:19:12;23.52;;;14.07;;
46457;SDS011;32155;54.076;12.092;2023-04-16T08:21:40;33.70;;;14.32;;
46457;SDS011;32155;54.076;12.092;2023-04-16T08:24:09;29.15;;;12.63;;
46457;SDS011;32155;54.076;12.092;2023-04-16T08:26:35;29.63;;;13.50;;
46457;SDS011;32155;54.076;12.092;2023-04-16T08:29:01;22.58;;;12.88;;
46457;SDS011;32155;54.076;12.092;2023-04-16T08:31:26;24.48;;;13.15;;
46457;SDS011;32155;54.076;12.092;2023-04-16T08:33:52;25.60;;;12.60;;
46457;SDS011;32155;54.076;12.092;2023-04-16T08:36:21;22.63;;;12.45;;
46457;SDS011;32155;54.076;12.092;2023-04-16T08:38:48;24.02;;;13.50;;
46457;SDS011;32155;54.076;12.092;2023-04-16T08:41:16;22.90;;;12.57;;
46457;SDS011;32155;54.076;12.092;2023-04-16T08:43:44;23.30;;;12.27;;
46457;SDS011;32155;54.076;12.092;2023-04-16T08:46:17;24.27;;;11.95;;
46457;SDS011;32155;54.076;12.092;2023-04-16T08:48:49;26.50;;;12.50;;
46457;SDS011;32155;54.076;12.092;2023-04-16T08:51:20;21.88;;;11.30;;
46457;SDS011;32155;54.076;12.092;2023-04-16T08:53:47;22.80;;;11.27;;
46457;SDS011;32155;54.076;12.092;2023-04-16T08:56:16;22.27;;;12.18;;
46457;SDS011;32155;54.076;12.092;2023-04-16T08:58:47;20.30;;;11.57;;
46457;SDS011;32155;54.076;12.092;2023-04-16T09:01:15;23.30;;;11.52;;
46457;SDS011;32155;54.076;12.092;2023-04-16T09:03:47;22.83;;;11.40;;
46457;SDS011;32155;54.076;12.092;2023-04-16T09:06:13;22.63;;;11.35;;
46457;SDS011;32155;54.076;12.092;2023-04-16T09:08:42;25.05;;;11.27;;
46457;SDS011;32155;54.076;12.092;2023-04-16T09:11:12;21.27;;;11.18;;
46457;SDS011;32155;54.076;12.092;2023-04-16T09:13:41;25.20;;;11.70;;
46457;SDS011;32155;54.076;12.092;2023-04-16T09:16:07;23.35;;;12.13;;
46457;SDS011;32155;54.076;12.092;2023-04-16T09:18:33;23.38;;;10.40;;
46457;SDS011;32155;54.076;12.092;2023-04-16T09:20:59;21.38;;;10.98;;
46457;SDS011;32155;54.076;12.092;2023-04-16T09:23:25;20.50;;;10.85;;
46457;SDS011;32155;54.076;12.092;2023-04-16T09:25:50;23.38;;;11.38;;
46457;SDS011;32155;54.076;12.092;2023-04-16T09:33:38;29.33;;;11.52;;
46457;SDS011;32155;54.076;12.092;2023-04-16T09:36:07;22.60;;;10.52;;
46457;SDS011;32155;54.076;12.092;2023-04-16T09:38:50;18.02;;;9.75;;
46457;SDS011;32155;54.076;12.092;2023-04-16T09:41:16;18.48;;;10.75;;
46457;SDS011;32155;54.076;12.092;2023-04-16T09:43:53;18.20;;;9.50;;
46457;SDS011;32155;54.076;12.092;2023-04-16T09:46:25;21.17;;;9.52;;
46457;SDS011;32155;54.076;12.092;2023-04-16T09:49:13;25.92;;;10.63;;
46457;SDS011;32155;54.076;12.092;2023-04-16T09:51:40;15.77;;;8.43;;
46457;SDS011;32155;54.076;12.092;2023-04-16T09:54:07;17.58;;;9.55;;
46457;SDS011;32155;54.076;12.092;2023-04-16T09:56:38;16.40;;;9.60;;
46457;SDS011;32155;54.076;12.092;2023-04-16T09:59:19;16.05;;;9.80;;
46457;SDS011;32155;54.076;12.092;2023-04-16T10:01:48;16.90;;;9.60;;
46457;SDS011;32155;54.076;12.092;2023-04-16T10:04:15;21.30;;;10.13;;
46457;SDS011;32155;54.076;12.092;2023-04-16T10:06:43;18.50;;;9.48;;
46457;SDS011;32155;54.076;12.092;2023-04-16T10:09:12;17.98;;;8.45;;
46457;SDS011;32155;54.076;12.092;2023-04-16T10:11:37;17.42;;;8.45;;
46457;SDS011;32155;54.076;12.092;2023-04-16T10:14:06;20.85;;;9.38;;
46457;SDS011;32155;54.076;12.092;2023-04-16T10:16:36;14.18;;;8.20;;
46457;SDS011;32155;54.076;12.092;2023-04-16T10:19:07;16.17;;;7.68;;
46457;SDS011;32155;54.076;12.092;2023-04-16T10:21:36;15.32;;;8.52;;
46457;SDS011;32155;54.076;12.092;2023-04-16T10:24:01;20.55;;;8.63;;
46457;SDS011;32155;54.076;12.092;2023-04-16T10:26:28;15.63;;;8.07;;
46457;SDS011;32155;54.076;12.092;2023-04-16T10:28:57;16.77;;;8.60;;
46457;SDS011;32155;54.076;12.092;2023-04-16T10:31:23;19.60;;;8.82;;
46457;SDS011;32155;54.076;12.092;2023-04-16T10:33:51;19.88;;;8.93;;
46457;SDS011;32155;54.076;12.092;2023-04-16T10:36:26;19.25;;;8.32;;
46457;SDS011;32155;54.076;12.092;2023-04-16T10:38:57;18.70;;;8.63;;
46457;SDS011;32155;54.076;12.092;2023-04-16T10:41:25;16.73;;;8.02;;
46457;SDS011;32155;54.076;12.092;2023-04-16T10:43:51;16.52;;;8.52;;
46457;SDS011;32155;54.076;12.092;2023-04-16T10:48:43;23.38;;;9.07;;
46457;SDS011;32155;54.076;12.092;2023-04-16T10:51:22;17.60;;;8.50;;
46457;SDS011;32155;54.076;12.092;2023-04-16T10:53:56;20.10;;;7.88;;
46457;SDS011;32155;54.076;12.092;2023-04-16T10:56:28;16.10;;;8.30;;
46457;SDS011;32155;54.076;12.092;2023-04-16T10:58:59;16.90;;;8.90;;
46457;SDS011;32155;54.076;12.092;2023-04-16T11:01:29;15.43;;;7.80;;
46457;SDS011;32155;54.076;12.092;2023-04-16T11:04:00;18.50;;;8.98;;
46457;SDS011;32155;54.076;12.092;2023-04-16T11:07:02;16.10;;;7.88;;
46457;SDS011;32155;54.076;12.092;2023-04-16T11:12:21;18.83;;;9.23;;
46457;SDS011;32155;54.076;12.092;2023-04-16T11:17:27;16.85;;;8.73;;
46457;SDS011;32155;54.076;12.092;2023-04-16T11:19:59;15.55;;;7.53;;
46457;SDS011;32155;54.076;12.092;2023-04-16T11:22:25;13.13;;;7.53;;
46457;SDS011;32155;54.076;12.092;2023-04-16T11:24:54;16.80;;;7.93;;
46457;SDS011;32155;54.076;12.092;2023-04-16T11:27:21;10.75;;;7.00;;
46457;SDS011;32155;54.076;12.092;2023-04-16T11:30:08;12.43;;;7.20;;
46457;SDS011;32155;54.076;12.092;2023-04-16T11:32:35;12.18;;;7.50;;
46457;SDS011;32155;54.076;12.092;2023-04-16T11:35:12;12.52;;;7.57;;
46457;SDS011;32155;54.076;12.092;2023-04-16T11:37:38;14.25;;;7.35;;
46457;SDS011;32155;54.076;12.092;2023-04-16T11:40:04;15.48;;;7.60;;
46457;SDS011;32155;54.076;12.092;2023-04-16T11:42:35;15.05;;;7.43;;
46457;SDS011;32155;54.076;12.092;2023-04-16T11:45:02;14.85;;;7.55;;
46457;SDS011;32155;54.076;12.092;2023-04-16T11:47:29;15.13;;;7.53;;
46457;SDS011;32155;54.076;12.092;2023-04-16T11:49:56;19.35;;;8.07;;
46457;SDS011;32155;54.076;12.092;2023-04-16T11:52:29;11.70;;;7.20;;
46457;SDS011;32155;54.076;12.092;2023-04-16T11:54:56;17.25;;;8.20;;
46457;SDS011;32155;54.076;12.092;2023-04-16T11:57:29;13.20;;;7.03;;
46457;SDS011;32155;54.076;12.092;2023-04-16T11:59:56;18.23;;;8.55;;
46457;SDS011;32155;54.076;12.092;2023-04-16T12:05:00;17.80;;;6.97;;
46457;SDS011;32155;54.076;12.092;2023-04-16T12:07:29;17.02;;;7.82;;
46457;SDS011;32155;54.076;12.092;2023-04-16T12:10:05;14.82;;;8.00;;
46457;SDS011;32155;54.076;12.092;2023-04-16T12:12:34;14.15;;;7.75;;
46457;SDS011;32155;54.076;12.092;2023-04-16T12:15:00;13.30;;;7.68;;
46457;SDS011;32155;54.076;12.092;2023-04-16T12:17:30;12.25;;;7.38;;
46457;SDS011;32155;54.076;12.092;2023-04-16T12:19:58;11.23;;;7.05;;
46457;SDS011;32155;54.076;12.092;2023-04-16T12:22:26;14.48;;;7.35;;
46457;SDS011;32155;54.076;12.092;2023-04-16T12:25:02;13.63;;;7.30;;
46457;SDS011;32155;54.076;12.092;2023-04-16T12:27:49;13.90;;;8.02;;
46457;SDS011;32155;54.076;12.092;2023-04-16T12:30:19;15.03;;;7.67;;
46457;SDS011;32155;54.076;12.092;2023-04-16T12:32:47;13.63;;;7.28;;
46457;SDS011;32155;54.076;12.092;2023-04-16T12:35:30;14.15;;;7.90;;
46457;SDS011;32155;54.076;12.092;2023-04-16T12:37:59;13.43;;;8.30;;
46457;SDS011;32155;54.076;12.092;2023-04-16T12:40:25;12.73;;;6.75;;
46457;SDS011;32155;54.076;12.092;2023-04-16T12:42:52;12.75;;;7.40;;
46457;SDS011;32155;54.076;12.092;2023-04-16T12:45:19;14.15;;;7.82;;
46457;SDS011;32155;54.076;12.092;2023-04-16T12:47:49;12.68;;;6.85;;
46457;SDS011;32155;54.076;12.092;2023-04-16T12:50:15;13.93;;;7.57;;
46457;SDS011;32155;54.076;12.092;2023-04-16T12:52:43;11.82;;;7.13;;
46457;SDS011;32155;54.076;12.092;2023-04-16T12:55:09;12.73;;;7.88;;
46457;SDS011;32155;54.076;12.092;2023-04-16T13:00:09;10.43;;;6.90;;
46457;SDS011;32155;54.076;12.092;2023-04-16T13:02:38;9.30;;;6.65;;
46457;SDS011;32155;54.076;12.092;2023-04-16T13:05:04;11.32;;;6.80;;
46457;SDS011;32155;54.076;12.092;2023-04-16T13:07:31;13.25;;;7.10;;
46457;SDS011;32155;54.076;12.092;2023-04-16T13:09:58;11.93;;;7.05;;
46457;SDS011;32155;54.076;12.092;2023-04-16T13:12:26;12.35;;;6.95;;
46457;SDS011;32155;54.076;12.092;2023-04-16T13:14:54;10.05;;;6.55;;
46457;SDS011;32155;54.076;12.092;2023-04-16T13:17:23;16.35;;;7.13;;
46457;SDS011;32155;54.076;12.092;2023-04-16T13:19:49;11.30;;;6.75;;
46457;SDS011;32155;54.076;12.092;2023-04-16T13:22:15;16.25;;;6.90;;
46457;SDS011;32155;54.076;12.092;2023-04-16T13:24:43;14.95;;;7.20;;
46457;SDS011;32155;54.076;12.092;2023-04-16T13:27:11;13.50;;;7.35;;
46457;SDS011;32155;54.076;12.092;2023-04-16T13:29:40;13.43;;;6.85;;
46457;SDS011;32155;54.076;12.092;2023-04-16T13:32:08;15.50;;;7.35;;
46457;SDS011;32155;54.076;12.092;2023-04-16T13:34:35;12.23;;;7.20;;
46457;SDS011;32155;54.076;12.092;2023-04-16T13:37:01;13.55;;;7.10;;
46457;SDS011;32155;54.076;12.092;2023-04-16T13:39:29;13.90;;;7.32;;
46457;SDS011;32155;54.076;12.092;2023-04-16T13:41:57;14.30;;;7.03;;
46457;SDS011;32155;54.076;12.092;2023-04-16T13:44:22;14.43;;;7.47;;
46457;SDS011;32155;54.076;12.092;2023-04-16T13:46:48;14.80;;;6.97;;
46457;SDS011;32155;54.076;12.092;2023-04-16T13:49:14;13.63;;;7.47;;
46457;SDS011;32155;54.076;12.092;2023-04-16T13:51:45;13.10;;;7.30;;
46457;SDS011;32155;54.076;12.092;2023-04-16T13:54:13;15.23;;;7.72;;
46457;SDS011;32155;54.076;12.092;2023-04-16T13:56:39;14.43;;;7.20;;
46457;SDS011;32155;54.076;12.092;2023-04-16T13:59:05;12.02;;;7.38;;
46457;SDS011;32155;54.076;12.092;2023-04-16T14:01:31;11.45;;;7.13;;
46457;SDS011;32155;54.076;12.092;2023-04-16T14:03:57;9.70;;;7.00;;
46457;SDS011;32155;54.076;12.092;2023-04-16T14:06:30;10.85;;;6.53;;
46457;SDS011;32155;54.076;12.092;2023-04-16T14:08:56;14.00;;;7.40;;
46457;SDS011;32155;54.076;12.092;2023-04-16T14:11:24;12.48;;;6.60;;
46457;SDS011;32155;54.076;12.092;2023-04-16T14:13:49;11.18;;;6.57;;
46457;SDS011;32155;54.076;12.092;2023-04-16T14:16:15;14.07;;;6.35;;
46457;SDS011;32155;54.076;12.092;2023-04-16T14:18:41;10.43;;;5.72;;
46457;SDS011;32155;54.076;12.092;2023-04-16T14:21:07;15.13;;;6.72;;
46457;SDS011;32155;54.076;12.092;2023-04-16T14:23:35;14.93;;;7.38;;
46457;SDS011;32155;54.076;12.092;2023-04-16T14:26:05;15.25;;;6.43;;
46457;SDS011;32155;54.076;12.092;2023-04-16T14:28:31;11.38;;;6.50;;
46457;SDS011;32155;54.076;12.092;2023-04-16T14:30:59;16.17;;;7.50;;
46457;SDS011;32155;54.076;12.092;2023-04-16T14:33:25;18.95;;;7.15;;
46457;SDS011;32155;54.076;12.092;2023-04-16T14:35:54;15.30;;;7.22;;
46457;SDS011;32155;54.076;12.092;2023-04-16T14:38:22;16.27;;;7.07;;
46457;SDS011;32155;54.076;12.092;2023-04-16T14:40:48;16.13;;;6.78;;
46457;SDS011;32155;54.076;12.092;2023-04-16T14:43:13;15.27;;;7.28;;